Time;durP1;ratioP1;P1;durP2;ratioP2;P2;SDS_P1;SDS_P2;PMS_P1;PMS_P2;Temp;Humidity;BMP_temperature;BMP_pressure;BME280_temperature;BME280_humidity;BME280_pressure;Samples;Min_cycle;Max_cycle;Signal;HPM_P1;HPM_P2
2023/09/27 00:02:07;;;;;;;;;20.00;15.33;;;;;;;;5073540;27;46368;-74
2023/09/27 00:04:34;;;;;;;;;18.00;14.00;;;;;;;;5073090;27;47364;-74
2023/09/27 00:06:59;;;;;;;;;18.67;13.67;;;;;;;;5063584;27;45535;-74
2023/09/27 00:09:24;;;;;;;;;16.33;15.00;;;;;;;;5066630;28;45401;-75
2023/09/27 00:11:50;;;;;;;;;16.33;16.33;;;;;;;;5065140;27;45700;-74
2023/09/27 00:14:15;;;;;;;;;18.00;14.00;;;;;;;;5058269;27;46279;-76
2023/09/27 00:16:41;;;;;;;;;16.00;13.67;;;;;;;;5061124;27;45721;-76
2023/09/27 00:19:06;;;;;;;;;18.67;17.33;;;;;;;;5073468;27;45574;-74
2023/09/27 00:21:31;;;;;;;;;16.33;14.33;;;;;;;;5076014;27;45853;-74
2023/09/27 00:23:57;;;;;;;;;17.67;14.67;;;;;;;;5075281;27;47580;-74
2023/09/27 00:26:22;;;;;;;;;16.00;11.67;;;;;;;;5071791;28;45664;-75
2023/09/27 00:28:47;;;;;;;;;16.33;15.00;;;;;;;;5076992;28;45567;-74
2023/09/27 00:31:14;;;;;;;;;18.00;13.67;;;;;;;;5086623;27;45455;-73
2023/09/27 00:33:39;;;;;;;;;10.00;7.33;;;;;;;;5075297;28;46988;-72
2023/09/27 00:36:04;;;;;;;;;16.00;13.33;;;;;;;;5066419;27;45775;-76
2023/09/27 00:38:30;;;;;;;;;17.67;13.67;;;;;;;;5082095;27;45577;-74
2023/09/27 00:40:55;;;;;;;;;12.67;12.00;;;;;;;;5075462;28;45476;-74
2023/09/27 00:43:31;;;;;;;;;20.67;16.00;;;;;;;;5074889;28;45674;-74
2023/09/27 00:45:59;;;;;;;;;17.67;16.00;;;;;;;;5079806;27;45486;-73
2023/09/27 00:48:25;;;;;;;;;13.33;13.33;;;;;;;;5065922;27;45418;-74
2023/09/27 00:50:51;;;;;;;;;16.33;16.33;;;;;;;;5088441;27;45549;-74
2023/09/27 00:53:16;;;;;;;;;17.33;15.67;;;;;;;;5064424;27;45577;-72
2023/09/27 00:55:42;;;;;;;;;21.00;16.67;;;;;;;;5068066;27;45760;-75
2023/09/27 00:58:07;;;;;;;;;18.67;16.67;;;;;;;;5072002;27;45822;-73
2023/09/27 01:00:33;;;;;;;;;18.33;16.67;;;;;;;;5075294;27;45769;-74
2023/09/27 01:03:02;;;;;;;;;17.33;14.67;;;;;;;;5067028;28;47173;-74
2023/09/27 01:05:27;;;;;;;;;17.33;13.00;;;;;;;;5072198;27;45398;-73
2023/09/27 01:07:52;;;;;;;;;15.67;13.33;;;;;;;;5073131;27;45466;-75
2023/09/27 01:10:18;;;;;;;;;17.00;13.00;;;;;;;;5074186;27;45321;-76
2023/09/27 01:12:43;;;;;;;;;14.00;14.00;;;;;;;;5073411;27;45491;-74
2023/09/27 01:15:08;;;;;;;;;15.00;14.33;;;;;;;;5074205;27;45780;-74
2023/09/27 01:17:37;;;;;;;;;18.00;14.00;;;;;;;;5068932;27;45796;-76
2023/09/27 01:20:11;;;;;;;;;12.33;12.33;;;;;;;;5071442;27;45574;-77
2023/09/27 01:22:36;;;;;;;;;19.00;16.33;;;;;;;;5076566;28;45567;-74
2023/09/27 01:25:02;;;;;;;;;12.67;12.67;;;;;;;;5068730;28;45439;-74
2023/09/27 01:27:29;;;;;;;;;15.33;14.33;;;;;;;;5068729;28;45536;-73
2023/09/27 01:29:54;;;;;;;;;18.33;15.33;;;;;;;;5073845;27;45367;-75
2023/09/27 01:32:19;;;;;;;;;18.33;14.67;;;;;;;;5073532;27;48421;-75
2023/09/27 01:34:45;;;;;;;;;20.67;17.00;;;;;;;;5060409;27;45745;-75
2023/09/27 01:37:11;;;;;;;;;20.33;15.33;;;;;;;;5082633;27;45440;-73
2023/09/27 01:39:37;;;;;;;;;16.67;16.00;;;;;;;;5073177;27;45552;-73
2023/09/27 01:42:02;;;;;;;;;15.33;15.33;;;;;;;;5063246;28;47041;-75
2023/09/27 01:44:27;;;;;;;;;15.67;14.33;;;;;;;;5069184;27;45472;-75
2023/09/27 01:46:53;;;;;;;;;16.67;14.00;;;;;;;;5075483;27;45410;-73
2023/09/27 01:49:19;;;;;;;;;17.33;13.33;;;;;;;;5073370;27;45713;-74
2023/09/27 01:51:45;;;;;;;;;18.00;16.00;;;;;;;;5056288;27;45753;-75
2023/09/27 01:54:10;;;;;;;;;11.67;11.67;;;;;;;;5068599;27;45559;-73
2023/09/27 01:56:36;;;;;;;;;17.00;13.67;;;;;;;;5085199;27;45913;-74
2023/09/27 01:59:01;;;;;;;;;18.00;14.67;;;;;;;;5075335;27;45754;-75
2023/09/27 02:01:27;;;;;;;;;17.33;15.00;;;;;;;;5072984;27;46602;-74
2023/09/27 02:03:52;;;;;;;;;18.33;16.67;;;;;;;;5071377;27;45708;-75
2023/09/27 02:06:17;;;;;;;;;12.67;11.33;;;;;;;;5073283;27;45453;-74
2023/09/27 02:08:42;;;;;;;;;16.33;13.33;;;;;;;;5078577;27;45471;-74
2023/09/27 02:11:08;;;;;;;;;17.67;14.00;;;;;;;;5083368;27;45621;-74
2023/09/27 02:13:33;;;;;;;;;19.67;15.67;;;;;;;;5075919;27;45676;-75
2023/09/27 02:15:59;;;;;;;;;10.67;10.33;;;;;;;;5078514;27;45552;-75
2023/09/27 02:18:24;;;;;;;;;16.00;13.67;;;;;;;;5077623;28;45855;-72
2023/09/27 02:20:50;;;;;;;;;14.67;13.67;;;;;;;;5073185;27;45909;-74
2023/09/27 02:23:15;;;;;;;;;21.00;15.67;;;;;;;;5075662;27;45741;-73
2023/09/27 02:25:41;;;;;;;;;18.67;15.33;;;;;;;;5075262;27;45764;-75
2023/09/27 02:28:06;;;;;;;;;15.67;13.00;;;;;;;;5075370;27;45791;-73
2023/09/27 02:30:32;;;;;;;;;17.67;14.33;;;;;;;;5077423;27;45813;-75
2023/09/27 02:32:57;;;;;;;;;13.00;11.33;;;;;;;;5076062;27;45902;-74
2023/09/27 02:35:23;;;;;;;;;15.00;12.67;;;;;;;;5075497;27;45737;-74
2023/09/27 02:37:48;;;;;;;;;20.00;15.00;;;;;;;;5070308;27;45571;-73
2023/09/27 02:40:14;;;;;;;;;16.00;12.67;;;;;;;;5063982;27;45499;-75
2023/09/27 02:42:43;;;;;;;;;17.33;16.00;;;;;;;;5072234;27;45484;-73
2023/09/27 02:45:09;;;;;;;;;16.67;13.33;;;;;;;;5074175;27;45274;-73
2023/09/27 02:47:35;;;;;;;;;11.00;10.67;;;;;;;;5076079;28;45461;-73
2023/09/27 02:50:00;;;;;;;;;19.00;14.67;;;;;;;;5068343;27;45386;-74
2023/09/27 02:52:25;;;;;;;;;16.00;13.00;;;;;;;;5074759;27;45770;-73
2023/09/27 02:54:51;;;;;;;;;10.67;9.33;;;;;;;;5073489;28;45354;-74
2023/09/27 02:57:16;;;;;;;;;14.00;11.33;;;;;;;;5062723;27;45630;-74
2023/09/27 02:59:41;;;;;;;;;11.67;11.67;;;;;;;;5070341;28;45476;-72
2023/09/27 03:02:08;;;;;;;;;22.00;15.00;;;;;;;;5078834;27;44775;-73
2023/09/27 03:04:34;;;;;;;;;17.00;16.00;;;;;;;;5078607;27;45951;-73
2023/09/27 03:06:59;;;;;;;;;14.00;14.00;;;;;;;;5075712;27;45583;-74
2023/09/27 03:09:25;;;;;;;;;14.33;13.67;;;;;;;;5072701;27;45566;-75
2023/09/27 03:11:50;;;;;;;;;19.67;18.33;;;;;;;;5073283;27;45730;-73
2023/09/27 03:14:16;;;;;;;;;14.00;14.00;;;;;;;;5074511;28;45420;-74
2023/09/27 03:16:42;;;;;;;;;27.33;17.00;;;;;;;;5074299;27;45417;-74
2023/09/27 03:19:07;;;;;;;;;20.33;17.33;;;;;;;;5074976;28;45870;-73
2023/09/27 03:21:32;;;;;;;;;15.33;13.67;;;;;;;;5078649;27;45409;-76
2023/09/27 03:23:58;;;;;;;;;18.33;15.67;;;;;;;;5069434;27;45436;-74
2023/09/27 03:26:23;;;;;;;;;25.33;20.33;;;;;;;;5076774;27;45363;-74
2023/09/27 03:28:50;;;;;;;;;23.67;20.33;;;;;;;;5076188;27;45413;-72
2023/09/27 03:31:15;;;;;;;;;20.00;20.00;;;;;;;;5084915;27;45470;-74
2023/09/27 03:33:40;;;;;;;;;24.67;19.67;;;;;;;;5077590;27;45433;-75
2023/09/27 03:36:07;;;;;;;;;16.33;15.00;;;;;;;;5073950;27;45306;-75
2023/09/27 03:38:32;;;;;;;;;20.67;15.00;;;;;;;;5084256;27;45256;-73
2023/09/27 03:40:57;;;;;;;;;18.00;16.67;;;;;;;;5068413;27;45353;-75
2023/09/27 03:43:22;;;;;;;;;20.33;15.00;;;;;;;;5078272;27;45484;-74
2023/09/27 03:45:49;;;;;;;;;19.33;16.00;;;;;;;;5087457;27;45369;-73
2023/09/27 03:48:15;;;;;;;;;18.67;13.33;;;;;;;;5077508;28;45814;-74
2023/09/27 03:50:40;;;;;;;;;16.67;11.67;;;;;;;;5077336;27;45917;-75
2023/09/27 03:53:05;;;;;;;;;10.00;8.67;;;;;;;;5077220;27;45414;-75
2023/09/27 03:55:31;;;;;;;;;16.00;14.00;;;;;;;;5075044;27;45885;-75
2023/09/27 03:57:56;;;;;;;;;18.67;16.67;;;;;;;;5066824;27;45424;-73
2023/09/27 04:00:22;;;;;;;;;17.67;15.67;;;;;;;;5063392;27;45367;-74
2023/09/27 04:02:47;;;;;;;;;19.00;16.33;;;;;;;;5075668;27;45779;-74
2023/09/27 04:05:14;;;;;;;;;21.00;18.67;;;;;;;;5079002;27;46338;-74
2023/09/27 04:07:42;;;;;;;;;20.67;20.00;;;;;;;;5069507;27;46099;-75
2023/09/27 04:10:08;;;;;;;;;18.67;18.67;;;;;;;;5066397;27;45495;-74
2023/09/27 04:12:36;;;;;;;;;22.33;19.00;;;;;;;;5069228;27;45607;-73
2023/09/27 04:15:06;;;;;;;;;13.33;12.67;;;;;;;;5077484;28;46039;-73
2023/09/27 04:17:32;;;;;;;;;25.33;21.67;;;;;;;;5091691;27;45757;-73
2023/09/27 04:19:58;;;;;;;;;24.33;22.33;;;;;;;;5076429;27;45400;-75
2023/09/27 04:22:23;;;;;;;;;27.33;22.33;;;;;;;;5063932;27;45785;-73
2023/09/27 04:24:49;;;;;;;;;19.33;18.67;;;;;;;;5089207;27;46023;-75
2023/09/27 04:27:14;;;;;;;;;26.00;22.00;;;;;;;;5081459;27;45667;-75
2023/09/27 04:29:39;;;;;;;;;28.00;23.67;;;;;;;;5069501;28;45445;-75
2023/09/27 04:32:05;;;;;;;;;70.75;53.75;;;;;;;;5064511;27;45758;-76
2023/09/27 04:34:30;;;;;;;;;30.00;27.33;;;;;;;;5076063;27;46369;-75
2023/09/27 04:36:56;;;;;;;;;26.67;24.33;;;;;;;;5081840;27;45456;-75
2023/09/27 04:39:21;;;;;;;;;27.67;25.67;;;;;;;;5076522;27;45694;-74
2023/09/27 04:41:46;;;;;;;;;25.67;23.00;;;;;;;;5077193;27;45841;-76
2023/09/27 04:44:15;;;;;;;;;26.00;23.33;;;;;;;;5077019;28;45601;-74
2023/09/27 04:46:40;;;;;;;;;29.00;24.67;;;;;;;;5077623;27;45424;-75
2023/09/27 04:49:06;;;;;;;;;26.00;23.00;;;;;;;;5079265;27;45606;-75
2023/09/27 04:51:31;;;;;;;;;22.67;20.33;;;;;;;;5073646;27;45933;-76
2023/09/27 04:54:00;;;;;;;;;26.00;23.00;;;;;;;;5070127;27;46096;-75
2023/09/27 04:56:26;;;;;;;;;23.33;19.33;;;;;;;;5081783;27;47102;-76
2023/09/27 04:58:51;;;;;;;;;22.33;18.00;;;;;;;;5063740;28;46073;-77
2023/09/27 05:01:17;;;;;;;;;31.67;25.00;;;;;;;;5079925;27;45527;-75
2023/09/27 05:03:43;;;;;;;;;25.00;23.33;;;;;;;;5072970;27;45830;-75
2023/09/27 05:06:08;;;;;;;;;21.33;20.00;;;;;;;;5068485;27;45599;-77
2023/09/27 05:08:34;;;;;;;;;27.00;23.00;;;;;;;;5077071;27;45549;-74
2023/09/27 05:10:59;;;;;;;;;26.33;23.33;;;;;;;;5083930;27;45469;-76
2023/09/27 05:13:24;;;;;;;;;26.33;24.00;;;;;;;;5073006;28;46050;-77
2023/09/27 05:15:53;;;;;;;;;25.00;23.00;;;;;;;;5061644;27;46663;-76
2023/09/27 05:18:18;;;;;;;;;21.33;19.00;;;;;;;;5049600;28;45391;-76
2023/09/27 05:20:44;;;;;;;;;22.67;20.67;;;;;;;;5070464;28;45651;-76
2023/09/27 05:23:10;;;;;;;;;21.33;20.67;;;;;;;;5077849;27;45349;-78
2023/09/27 05:25:35;;;;;;;;;34.67;25.00;;;;;;;;5071986;27;46425;-75
2023/09/27 05:28:01;;;;;;;;;26.00;24.00;;;;;;;;5064893;27;45628;-75
2023/09/27 05:30:26;;;;;;;;;31.33;26.00;;;;;;;;5064484;27;45722;-76
2023/09/27 05:32:51;;;;;;;;;26.00;23.67;;;;;;;;5061102;27;46008;-76
2023/09/27 05:35:17;;;;;;;;;29.33;27.00;;;;;;;;5067344;27;46933;-75
2023/09/27 05:37:42;;;;;;;;;25.33;22.67;;;;;;;;5071252;27;45527;-76
2023/09/27 05:40:09;;;;;;;;;34.67;26.67;;;;;;;;5080591;27;45867;-75
2023/09/27 05:42:35;;;;;;;;;31.00;25.33;;;;;;;;5087102;27;45448;-75
2023/09/27 05:45:00;;;;;;;;;28.67;25.67;;;;;;;;5071086;27;45431;-74
2023/09/27 05:47:26;;;;;;;;;35.00;29.33;;;;;;;;5080075;27;45542;-77
2023/09/27 05:49:51;;;;;;;;;35.33;25.00;;;;;;;;5071504;28;45442;-78
2023/09/27 05:52:17;;;;;;;;;34.67;31.33;;;;;;;;5071835;27;45324;-77
2023/09/27 05:54:42;;;;;;;;;30.67;24.67;;;;;;;;5060551;27;45394;-76
2023/09/27 05:57:08;;;;;;;;;26.67;22.67;;;;;;;;5063252;28;45475;-77
2023/09/27 05:59:33;;;;;;;;;21.33;20.33;;;;;;;;5073137;27;46039;-77
2023/09/27 06:01:59;;;;;;;;;34.67;27.67;;;;;;;;5079223;27;45952;-75
2023/09/27 06:04:24;;;;;;;;;28.00;22.33;;;;;;;;5060491;28;45443;-76
2023/09/27 06:06:49;;;;;;;;;31.00;24.67;;;;;;;;5070802;28;45791;-76
2023/09/27 06:09:16;;;;;;;;;23.67;23.00;;;;;;;;5071187;27;45460;-77
2023/09/27 06:11:41;;;;;;;;;29.67;24.00;;;;;;;;5063976;28;45631;-79
2023/09/27 06:14:10;;;;;;;;;24.00;23.33;;;;;;;;5067009;27;46868;-79
2023/09/27 06:16:36;;;;;;;;;34.33;25.00;;;;;;;;5072201;27;46146;-78
2023/09/27 06:19:05;;;;;;;;;33.00;24.00;;;;;;;;5071036;27;46011;-79
2023/09/27 06:21:30;;;;;;;;;25.00;21.33;;;;;;;;5076623;27;45493;-79
2023/09/27 06:23:56;;;;;;;;;24.00;21.67;;;;;;;;5076482;27;45940;-80
2023/09/27 06:26:21;;;;;;;;;29.33;24.33;;;;;;;;5067218;27;45668;-80
2023/09/27 06:28:46;;;;;;;;;28.67;25.33;;;;;;;;5077436;27;45467;-77
2023/09/27 06:31:13;;;;;;;;;74.50;58.00;;;;;;;;5073570;27;46427;-77
2023/09/27 06:33:39;;;;;;;;;35.33;27.33;;;;;;;;5072424;27;45516;-76
2023/09/27 06:36:05;;;;;;;;;42.67;31.67;;;;;;;;5077327;27;45971;-77
2023/09/27 06:38:31;;;;;;;;;40.33;33.67;;;;;;;;5067418;27;45731;-80
2023/09/27 06:40:57;;;;;;;;;39.33;30.00;;;;;;;;5075256;27;45664;-78
2023/09/27 06:43:23;;;;;;;;;32.33;29.67;;;;;;;;5087417;27;45865;-79
2023/09/27 06:45:49;;;;;;;;;46.00;36.00;;;;;;;;5078663;27;45481;-79
2023/09/27 06:48:18;;;;;;;;;36.33;33.00;;;;;;;;5069865;27;45723;-78
2023/09/27 06:50:43;;;;;;;;;30.33;28.67;;;;;;;;5078435;27;45735;-77
2023/09/27 06:53:09;;;;;;;;;24.33;23.33;;;;;;;;5076604;27;46541;-78
2023/09/27 06:55:34;;;;;;;;;27.67;23.67;;;;;;;;5078797;27;45406;-78
2023/09/27 06:57:59;;;;;;;;;20.00;19.00;;;;;;;;5076054;27;45439;-79
2023/09/27 07:00:25;;;;;;;;;22.00;21.67;;;;;;;;5081898;27;45710;-76
2023/09/27 07:02:53;;;;;;;;;27.33;21.00;;;;;;;;5071440;27;46565;-80
2023/09/27 07:05:21;;;;;;;;;23.67;22.33;;;;;;;;5069495;28;45810;-78
2023/09/27 07:07:47;;;;;;;;;23.33;19.33;;;;;;;;5066554;27;46294;-79
2023/09/27 07:10:12;;;;;;;;;21.67;21.00;;;;;;;;5072304;28;46470;-79
2023/09/27 07:12:38;;;;;;;;;25.00;21.33;;;;;;;;5078821;27;46322;-80
2023/09/27 07:15:10;;;;;;;;;27.00;23.33;;;;;;;;5081436;27;45814;-78
2023/09/27 07:17:36;;;;;;;;;24.67;23.67;;;;;;;;5079880;27;44813;-78
2023/09/27 07:20:09;;;;;;;;;25.00;22.00;;;;;;;;5076714;27;45481;-80
2023/09/27 07:22:35;;;;;;;;;25.33;20.67;;;;;;;;5083722;27;45911;-79
2023/09/27 07:25:03;;;;;;;;;32.67;24.67;;;;;;;;5073776;27;45506;-79
2023/09/27 07:27:28;;;;;;;;;23.00;23.00;;;;;;;;5079533;27;45507;-78
2023/09/27 07:29:53;;;;;;;;;22.67;21.33;;;;;;;;5079082;27;45539;-78
2023/09/27 07:32:19;;;;;;;;;32.67;28.33;;;;;;;;5071790;27;45481;-79
2023/09/27 07:34:44;;;;;;;;;37.00;28.67;;;;;;;;5072853;27;45375;-79
2023/09/27 07:37:10;;;;;;;;;23.67;21.33;;;;;;;;5068972;27;45433;-77
2023/09/27 07:39:36;;;;;;;;;27.67;25.00;;;;;;;;5072808;27;45446;-76
2023/09/27 07:42:01;;;;;;;;;25.33;21.67;;;;;;;;5076121;27;46138;-77
2023/09/27 07:44:28;;;;;;;;;24.50;23.00;;;;;;;;5075110;27;45545;-77
2023/09/27 07:46:54;;;;;;;;;28.67;21.33;;;;;;;;5076917;27;45776;-78
2023/09/27 07:49:19;;;;;;;;;25.67;24.33;;;;;;;;5077123;27;45893;-76
2023/09/27 07:51:44;;;;;;;;;27.00;23.33;;;;;;;;5072160;27;45485;-77
2023/09/27 07:54:09;;;;;;;;;25.33;22.67;;;;;;;;5069891;28;45857;-78
2023/09/27 07:56:39;;;;;;;;;23.33;18.00;;;;;;;;5079484;27;45889;-76
2023/09/27 07:59:05;;;;;;;;;22.00;21.33;;;;;;;;5073011;27;45899;-78
2023/09/27 08:01:31;;;;;;;;;27.00;24.00;;;;;;;;5059590;27;46118;-76
2023/09/27 08:04:06;;;;;;;;;31.00;27.33;;;;;;;;5077831;27;44821;-78
2023/09/27 08:06:31;;;;;;;;;34.33;28.33;;;;;;;;5079711;27;45409;-78
2023/09/27 08:08:57;;;;;;;;;27.33;24.33;;;;;;;;5078963;27;45713;-77
2023/09/27 08:11:23;;;;;;;;;27.67;24.33;;;;;;;;5075657;28;45344;-77
2023/09/27 08:13:48;;;;;;;;;27.33;24.00;;;;;;;;5070828;27;45653;-76
2023/09/27 08:16:13;;;;;;;;;26.67;23.33;;;;;;;;5076827;27;45412;-79
2023/09/27 08:18:40;;;;;;;;;24.00;24.00;;;;;;;;5079277;27;45192;-78
2023/09/27 08:21:05;;;;;;;;;32.33;27.33;;;;;;;;5091010;27;45690;-78
2023/09/27 08:23:31;;;;;;;;;32.33;23.67;;;;;;;;5073583;27;45866;-77
2023/09/27 08:25:56;;;;;;;;;29.33;26.33;;;;;;;;5069427;27;45592;-77
2023/09/27 08:28:21;;;;;;;;;34.00;27.67;;;;;;;;5073486;27;45343;-76
2023/09/27 08:30:47;;;;;;;;;24.00;21.67;;;;;;;;5074560;27;47171;-76
2023/09/27 08:33:13;;;;;;;;;31.67;26.33;;;;;;;;5077972;27;45505;-76
2023/09/27 08:35:38;;;;;;;;;26.67;22.00;;;;;;;;5075496;27;45540;-74
2023/09/27 08:38:04;;;;;;;;;30.33;26.00;;;;;;;;5068083;27;45458;-75
2023/09/27 08:40:29;;;;;;;;;33.67;29.33;;;;;;;;5069797;27;46694;-76
2023/09/27 08:42:59;;;;;;;;;26.00;24.67;;;;;;;;5072693;27;45735;-76
2023/09/27 08:45:26;;;;;;;;;34.00;28.67;;;;;;;;5071454;27;45916;-77
2023/09/27 08:47:51;;;;;;;;;31.00;28.00;;;;;;;;5068692;27;45475;-76
2023/09/27 08:50:18;;;;;;;;;26.67;26.00;;;;;;;;5060116;27;47123;-76
2023/09/27 08:52:50;;;;;;;;;26.33;22.00;;;;;;;;5065535;27;45519;-78
2023/09/27 08:55:16;;;;;;;;;34.67;25.67;;;;;;;;5069443;27;45744;-75
2023/09/27 08:57:43;;;;;;;;;33.00;27.33;;;;;;;;5062694;27;45555;-75
2023/09/27 09:00:13;;;;;;;;;28.67;21.67;;;;;;;;5069572;27;46004;-76
2023/09/27 09:02:40;;;;;;;;;26.67;24.00;;;;;;;;5068526;27;45746;-77
2023/09/27 09:05:06;;;;;;;;;30.33;28.33;;;;;;;;5066857;27;45453;-78
2023/09/27 09:07:32;;;;;;;;;22.33;20.67;;;;;;;;5070511;27;46375;-76
2023/09/27 09:09:58;;;;;;;;;23.33;20.67;;;;;;;;5067685;27;45798;-74
2023/09/27 09:12:25;;;;;;;;;21.00;17.33;;;;;;;;5073681;27;45807;-76
2023/09/27 09:14:54;;;;;;;;;20.00;19.00;;;;;;;;5071952;27;45712;-76
2023/09/27 09:17:24;;;;;;;;;17.67;17.33;;;;;;;;5068121;27;45827;-76
2023/09/27 09:20:17;;;;;;;;;12.67;12.67;;;;;;;;5070632;27;46027;-75
2023/09/27 09:22:43;;;;;;;;;14.33;12.00;;;;;;;;5065505;27;45485;-76
2023/09/27 09:25:08;;;;;;;;;14.00;12.33;;;;;;;;5071983;27;45477;-77
2023/09/27 09:27:33;;;;;;;;;10.75;9.75;;;;;;;;5076461;27;45512;-76
2023/09/27 09:30:01;;;;;;;;;11.25;9.25;;;;;;;;5074116;27;45752;-76
2023/09/27 09:32:29;;;;;;;;;14.00;13.00;;;;;;;;5073440;27;45908;-76
2023/09/27 09:34:55;;;;;;;;;14.25;12.50;;;;;;;;5075231;27;45377;-76
2023/09/27 09:37:24;;;;;;;;;9.25;8.50;;;;;;;;5073233;27;46625;-76
2023/09/27 09:39:50;;;;;;;;;10.75;9.25;;;;;;;;5079276;27;47515;-77
2023/09/27 09:42:32;;;;;;;;;7.00;6.00;;;;;;;;5074546;27;45760;-76
2023/09/27 09:45:01;;;;;;;;;10.50;9.50;;;;;;;;5073192;27;45532;-75
2023/09/27 09:47:30;;;;;;;;;10.25;9.25;;;;;;;;5073474;27;46344;-77
2023/09/27 09:49:55;;;;;;;;;8.75;8.25;;;;;;;;5074866;27;45947;-77
2023/09/27 09:52:24;;;;;;;;;15.00;10.00;;;;;;;;5066336;27;45955;-78
2023/09/27 09:54:50;;;;;;;;;11.00;10.00;;;;;;;;5070731;27;45544;-76
2023/09/27 09:57:19;;;;;;;;;13.75;10.25;;;;;;;;5067131;27;45512;-75
2023/09/27 09:59:49;;;;;;;;;66.67;51.33;;;;;;;;5071754;28;46047;-77
2023/09/27 10:02:20;;;;;;;;;10.75;9.25;;;;;;;;5066257;27;45363;-78
2023/09/27 10:04:46;;;;;;;;;12.00;9.00;;;;;;;;5066559;27;45483;-77
2023/09/27 10:07:12;;;;;;;;;15.00;12.25;;;;;;;;5069050;27;45820;-75
2023/09/27 10:09:38;;;;;;;;;24.00;21.00;;;;;;;;5065961;27;45628;-76
2023/09/27 10:12:03;;;;;;;;;10.75;10.00;;;;;;;;5069259;27;45867;-77
2023/09/27 10:14:29;;;;;;;;;12.00;7.75;;;;;;;;5075196;27;45827;-77
2023/09/27 10:16:54;;;;;;;;;16.75;15.25;;;;;;;;5069075;27;46298;-76
2023/09/27 10:19:28;;;;;;;;;27.67;22.67;;;;;;;;5071300;27;46425;-76
2023/09/27 10:22:14;;;;;;;;;7.75;7.50;;;;;;;;5061590;27;45893;-76
2023/09/27 10:24:41;;;;;;;;;8.25;8.25;;;;;;;;5074146;27;45579;-78
2023/09/27 10:27:07;;;;;;;;;10.50;9.50;;;;;;;;5071264;27;45802;-79
2023/09/27 10:29:52;;;;;;;;;16.75;15.50;;;;;;;;5073738;27;47463;-77
2023/09/27 10:32:17;;;;;;;;;8.50;8.25;;;;;;;;5079700;27;45849;-78
2023/09/27 10:34:43;;;;;;;;;11.50;9.50;;;;;;;;5074305;27;45544;-77
2023/09/27 10:37:08;;;;;;;;;8.50;8.50;;;;;;;;5077062;27;46143;-76
2023/09/27 10:39:36;;;;;;;;;10.00;9.00;;;;;;;;5063243;27;45618;-77
2023/09/27 10:42:02;;;;;;;;;11.50;10.75;;;;;;;;5081805;27;45752;-78
2023/09/27 10:44:31;;;;;;;;;10.50;9.50;;;;;;;;5091157;27;45395;-81
2023/09/27 10:47:03;;;;;;;;;10.00;8.00;;;;;;;;5083745;27;45601;-78
2023/09/27 10:49:38;;;;;;;;;10.00;10.00;;;;;;;;5090325;27;45565;-82
2023/09/27 10:52:17;;;;;;;;;10.75;8.25;;;;;;;;5084877;27;45527;-78
2023/09/27 10:54:42;;;;;;;;;10.00;7.50;;;;;;;;5068833;27;45464;-78
2023/09/27 10:57:08;;;;;;;;;9.75;7.50;;;;;;;;5087357;27;45779;-76
2023/09/27 10:59:33;;;;;;;;;7.75;7.75;;;;;;;;5075403;27;46205;-79
2023/09/27 11:01:59;;;;;;;;;7.50;6.25;;;;;;;;5069380;27;45689;-77
2023/09/27 11:04:24;;;;;;;;;7.00;7.00;;;;;;;;5072200;27;45381;-77
2023/09/27 11:06:50;;;;;;;;;11.00;9.00;;;;;;;;5074522;27;45558;-75
2023/09/27 11:09:19;;;;;;;;;7.50;6.50;;;;;;;;5079353;27;48538;-78
2023/09/27 11:11:48;;;;;;;;;9.25;6.50;;;;;;;;5082222;27;45865;-77
2023/09/27 11:14:23;;;;;;;;;6.50;6.50;;;;;;;;5077726;27;45811;-75
2023/09/27 11:16:49;;;;;;;;;6.25;6.00;;;;;;;;5074021;28;46010;-78
2023/09/27 11:19:14;;;;;;;;;4.50;2.75;;;;;;;;5072812;27;47868;-77
2023/09/27 11:21:39;;;;;;;;;6.25;6.25;;;;;;;;5074984;27;45655;-77
2023/09/27 11:24:06;;;;;;;;;6.25;5.75;;;;;;;;5081950;27;45974;-78
2023/09/27 11:26:32;;;;;;;;;8.50;6.25;;;;;;;;5080806;27;45903;-77
2023/09/27 11:29:02;;;;;;;;;9.00;7.00;;;;;;;;5082046;27;45589;-76
2023/09/27 11:31:30;;;;;;;;;6.50;6.25;;;;;;;;5080835;27;44751;-77
2023/09/27 11:34:14;;;;;;;;;10.50;7.00;;;;;;;;5091138;27;45552;-76
2023/09/27 11:36:53;;;;;;;;;7.25;7.25;;;;;;;;5079043;27;45422;-75
2023/09/27 11:39:19;;;;;;;;;7.50;7.50;;;;;;;;5068567;27;45457;-76
2023/09/27 11:41:45;;;;;;;;;8.00;8.00;;;;;;;;5074883;27;45907;-76
2023/09/27 11:44:17;;;;;;;;;10.50;6.50;;;;;;;;5069709;27;45787;-76
2023/09/27 11:46:43;;;;;;;;;6.75;6.75;;;;;;;;5083555;27;45811;-76
2023/09/27 11:49:09;;;;;;;;;10.25;8.00;;;;;;;;5081335;27;45497;-76
2023/09/27 11:51:38;;;;;;;;;9.00;8.00;;;;;;;;5080828;27;45514;-75
2023/09/27 11:54:04;;;;;;;;;7.50;7.00;;;;;;;;5081425;27;45372;-75
2023/09/27 11:56:29;;;;;;;;;4.75;4.75;;;;;;;;5080333;27;45540;-77
2023/09/27 11:58:55;;;;;;;;;9.00;7.25;;;;;;;;5075124;27;45875;-76
2023/09/27 12:01:20;;;;;;;;;12.00;7.00;;;;;;;;5076101;27;45799;-77
2023/09/27 12:03:45;;;;;;;;;12.25;9.50;;;;;;;;5086853;27;45460;-77
2023/09/27 12:06:11;;;;;;;;;6.00;6.00;;;;;;;;5086515;27;47167;-78
2023/09/27 12:08:36;;;;;;;;;7.00;5.75;;;;;;;;5077807;28;45691;-77
2023/09/27 12:11:03;;;;;;;;;10.00;7.25;;;;;;;;5078956;27;45701;-77
2023/09/27 12:13:28;;;;;;;;;5.25;5.25;;;;;;;;5072694;27;45905;-76
2023/09/27 12:15:53;;;;;;;;;4.50;4.50;;;;;;;;5078964;27;45491;-76
2023/09/27 12:18:18;;;;;;;;;7.00;5.00;;;;;;;;5075683;28;47653;-77
2023/09/27 12:20:45;;;;;;;;;5.25;5.00;;;;;;;;5077339;27;45467;-76
2023/09/27 12:23:10;;;;;;;;;8.50;8.50;;;;;;;;5083643;27;45421;-76
2023/09/27 12:25:35;;;;;;;;;10.75;6.25;;;;;;;;5075444;27;46130;-76
2023/09/27 12:28:00;;;;;;;;;5.00;5.00;;;;;;;;5074394;28;47124;-76
2023/09/27 12:30:27;;;;;;;;;8.00;5.75;;;;;;;;5064400;27;45833;-76
2023/09/27 12:32:53;;;;;;;;;8.00;5.50;;;;;;;;5074255;27;45643;-78
2023/09/27 12:35:20;;;;;;;;;8.25;6.75;;;;;;;;5077315;27;46476;-79
2023/09/27 12:37:45;;;;;;;;;5.50;5.50;;;;;;;;5072763;27;45602;-77
2023/09/27 12:40:11;;;;;;;;;7.00;7.00;;;;;;;;5079169;27;45971;-77
2023/09/27 12:42:37;;;;;;;;;8.50;5.25;;;;;;;;5075978;27;45585;-77
2023/09/27 12:45:03;;;;;;;;;7.50;6.00;;;;;;;;5076191;27;45464;-76
2023/09/27 12:47:28;;;;;;;;;6.25;5.25;;;;;;;;5085232;27;46958;-75
2023/09/27 12:49:54;;;;;;;;;6.00;5.00;;;;;;;;5080904;27;46048;-77
2023/09/27 12:52:19;;;;;;;;;3.00;3.00;;;;;;;;5076464;27;45430;-76
2023/09/27 12:54:47;;;;;;;;;5.75;5.00;;;;;;;;5076830;27;46107;-77
2023/09/27 12:57:12;;;;;;;;;5.25;4.00;;;;;;;;5085098;27;45730;-77
2023/09/27 12:59:41;;;;;;;;;5.75;4.25;;;;;;;;5081772;27;45449;-77
2023/09/27 13:02:06;;;;;;;;;5.00;5.00;;;;;;;;5081658;27;45474;-75
2023/09/27 13:04:31;;;;;;;;;5.00;5.00;;;;;;;;5083992;27;45547;-77
2023/09/27 13:06:57;;;;;;;;;3.25;3.25;;;;;;;;5080413;27;45976;-78
2023/09/27 13:09:22;;;;;;;;;5.50;5.50;;;;;;;;5081051;27;45809;-78
2023/09/27 13:11:47;;;;;;;;;5.50;3.00;;;;;;;;5068737;28;44972;-77
2023/09/27 13:14:13;;;;;;;;;10.00;8.00;;;;;;;;5076502;27;45422;-77
2023/09/27 13:16:38;;;;;;;;;5.25;4.50;;;;;;;;5080928;27;46550;-77
2023/09/27 13:19:04;;;;;;;;;2.00;2.00;;;;;;;;5075808;27;45543;-79
2023/09/27 13:21:29;;;;;;;;;5.50;5.25;;;;;;;;5076645;27;45480;-77
2023/09/27 13:23:54;;;;;;;;;7.00;4.50;;;;;;;;5073622;27;45544;-76
2023/09/27 13:26:19;;;;;;;;;3.75;3.75;;;;;;;;5070522;27;45969;-76
2023/09/27 13:28:46;;;;;;;;;3.75;3.75;;;;;;;;5075790;27;45879;-77
2023/09/27 13:31:11;;;;;;;;;6.50;4.50;;;;;;;;5075153;27;45445;-77
2023/09/27 13:33:36;;;;;;;;;4.00;4.00;;;;;;;;5074116;27;45499;-77
2023/09/27 13:36:02;;;;;;;;;5.50;4.75;;;;;;;;5074169;27;45417;-77
2023/09/27 13:38:27;;;;;;;;;9.00;5.00;;;;;;;;5076258;27;44771;-79
2023/09/27 13:40:53;;;;;;;;;5.50;5.00;;;;;;;;5076164;27;45459;-77
2023/09/27 13:43:18;;;;;;;;;3.50;3.50;;;;;;;;5072053;27;45690;-77
2023/09/27 13:45:44;;;;;;;;;6.25;5.75;;;;;;;;5073886;27;45881;-78
2023/09/27 13:48:09;;;;;;;;;6.50;4.00;;;;;;;;5080999;27;45496;-78
2023/09/27 13:50:35;;;;;;;;;2.00;1.00;;;;;;;;5075556;27;45650;-78
2023/09/27 13:53:01;;;;;;;;;6.50;4.25;;;;;;;;5067539;27;45456;-78
2023/09/27 13:55:26;;;;;;;;;6.50;4.00;;;;;;;;5081726;27;45755;-77
2023/09/27 13:57:51;;;;;;;;;3.00;3.00;;;;;;;;5081139;27;45805;-78
2023/09/27 14:00:17;;;;;;;;;5.50;3.25;;;;;;;;5065446;27;45759;-77
2023/09/27 14:02:43;;;;;;;;;6.75;4.00;;;;;;;;5080576;27;45871;-76
2023/09/27 14:05:08;;;;;;;;;4.00;3.25;;;;;;;;5082409;27;45558;-77
2023/09/27 14:07:33;;;;;;;;;3.25;3.25;;;;;;;;5079851;27;45422;-75
2023/09/27 14:09:59;;;;;;;;;4.50;3.25;;;;;;;;5081120;27;45528;-76
2023/09/27 14:12:24;;;;;;;;;4.00;4.00;;;;;;;;5082928;27;45394;-77
2023/09/27 14:14:52;;;;;;;;;4.75;3.25;;;;;;;;5082467;27;47177;-79
2023/09/27 14:17:17;;;;;;;;;2.00;2.00;;;;;;;;5077894;27;45670;-78
2023/09/27 14:19:43;;;;;;;;;4.50;4.25;;;;;;;;5078898;27;45691;-78